createdAt,value
2018-09-10T00:00:35.584Z,6.13
2018-09-10T00:03:05.992Z,6.43
2018-09-10T00:05:36.424Z,7.07
2018-09-10T00:08:07.461Z,7.00
2018-09-10T00:10:38.325Z,6.37
2018-09-10T00:13:10.014Z,7.33
2018-09-10T00:15:40.900Z,6.17
2018-09-10T00:18:11.408Z,7.90
2018-09-10T00:20:41.731Z,6.33
2018-09-10T00:23:12.240Z,6.70
2018-09-10T00:25:42.592Z,7.27
2018-09-10T00:28:13.205Z,6.40
2018-09-10T00:30:43.783Z,6.70
2018-09-10T00:33:14.570Z,7.07
2018-09-10T00:35:44.825Z,7.37
2018-09-10T00:38:15.717Z,6.60
2018-09-10T00:40:46.316Z,6.50
2018-09-10T00:43:16.589Z,7.10
2018-09-10T00:45:47.528Z,7.30
2018-09-10T00:48:18.364Z,6.77
2018-09-10T00:50:49.192Z,6.93
2018-09-10T00:53:19.823Z,6.70
2018-09-10T00:55:51.295Z,7.10
2018-09-10T00:58:21.821Z,7.33
2018-09-10T01:00:52.324Z,6.60
2018-09-10T01:03:22.767Z,6.70
2018-09-10T01:05:53.583Z,7.13
2018-09-10T01:08:24.738Z,7.67
2018-09-10T01:10:55.279Z,8.10
2018-09-10T01:13:25.810Z,7.07
2018-09-10T01:15:56.670Z,7.57
2018-09-10T01:18:27.181Z,6.30
2018-09-10T01:20:57.688Z,7.60
2018-09-10T01:23:28.604Z,6.27
2018-09-10T01:25:59.671Z,6.53
2018-09-10T01:28:30.187Z,7.10
2018-09-10T01:31:00.702Z,5.90
2018-09-10T01:33:36.370Z,6.20
2018-09-10T01:36:06.591Z,6.87
2018-09-10T01:38:38.507Z,6.17
2018-09-10T01:41:10.244Z,6.57
2018-09-10T01:43:40.761Z,6.23
2018-09-10T01:46:10.992Z,6.30
2018-09-10T01:48:41.669Z,5.67
2018-09-10T01:51:12.639Z,6.47
2018-09-10T01:53:43.308Z,6.77
2018-09-10T01:56:13.893Z,7.20
2018-09-10T01:58:44.604Z,8.00
2018-09-10T02:01:15.104Z,7.43
2018-09-10T02:03:46.197Z,7.20
2018-09-10T02:06:16.766Z,5.90
2018-09-10T02:08:47.533Z,6.47
2018-09-10T02:11:17.726Z,6.57
2018-09-10T02:13:48.392Z,6.87
2018-09-10T02:16:19.545Z,7.13
2018-09-10T02:18:50.136Z,6.10
2018-09-10T02:21:21.222Z,7.60
2018-09-10T02:23:52.016Z,6.33
2018-09-10T02:26:22.986Z,6.67
2018-09-10T02:28:53.810Z,7.70
2018-09-10T02:31:24.330Z,7.20
2018-09-10T02:33:55.088Z,7.00
2018-09-10T02:36:25.608Z,7.30
2018-09-10T02:38:56.132Z,5.70
2018-09-10T02:41:26.429Z,5.27
2018-09-10T02:43:56.938Z,4.80
2018-09-10T02:46:27.288Z,5.40
2018-09-10T02:48:57.921Z,5.00
2018-09-10T02:51:28.583Z,5.37
2018-09-10T02:53:59.640Z,5.67
2018-09-10T02:56:30.296Z,5.27
2018-09-10T02:59:01.196Z,6.77
2018-09-10T03:01:31.718Z,7.13
2018-09-10T03:04:02.302Z,6.50
2018-09-10T03:06:32.598Z,6.47
2018-09-10T03:09:03.210Z,7.33
2018-09-10T03:11:33.696Z,6.80
2018-09-10T03:14:04.165Z,5.43
2018-09-10T03:16:34.695Z,6.00
2018-09-10T03:19:05.511Z,5.73
2018-09-10T03:21:36.091Z,5.80
2018-09-10T03:24:06.971Z,5.47
2018-09-10T03:26:37.724Z,5.63
2018-09-10T03:29:08.749Z,5.90
2018-09-10T03:31:39.392Z,5.83
2018-09-10T03:34:09.915Z,5.57
2018-09-10T03:36:40.448Z,5.87
2018-09-10T03:39:11.536Z,5.60
2018-09-10T03:41:41.796Z,5.27
2018-09-10T03:44:12.297Z,6.17
2018-09-10T03:46:42.525Z,5.60
2018-09-10T03:49:13.111Z,5.20
2018-09-10T03:51:43.635Z,5.87
2018-09-10T03:54:13.883Z,6.30
2018-09-10T03:56:44.687Z,6.93
2018-09-10T03:59:14.947Z,6.50
2018-09-10T04:01:45.715Z,7.47
2018-09-10T04:04:16.252Z,6.83
2018-09-10T04:06:46.572Z,7.23
2018-09-10T04:09:17.046Z,6.10
2018-09-10T04:11:47.731Z,6.70
2018-09-10T04:14:18.301Z,6.23
2018-09-10T04:16:49.247Z,6.97
2018-09-10T04:19:19.831Z,6.63
2018-09-10T04:21:50.544Z,6.53
2018-09-10T04:24:21.184Z,6.47
2018-09-10T04:26:51.981Z,6.43
2018-09-10T04:29:22.353Z,7.00
2018-09-10T04:31:52.843Z,6.43
2018-09-10T04:34:23.309Z,6.13
2018-09-10T04:36:53.809Z,6.17
2018-09-10T04:39:25.853Z,7.40
2018-09-10T04:41:56.439Z,6.47
2018-09-10T04:44:26.909Z,7.10
2018-09-10T04:46:58.075Z,6.37
2018-09-10T04:49:28.747Z,7.33
2018-09-10T04:51:59.240Z,6.30
2018-09-10T04:54:29.744Z,7.03
2018-09-10T04:57:00.245Z,7.00
2018-09-10T04:59:30.653Z,6.40
2018-09-10T05:02:01.372Z,8.10
2018-09-10T05:04:32.480Z,8.13
2018-09-10T05:07:03.182Z,7.63
2018-09-10T05:09:33.844Z,7.10
2018-09-10T05:12:04.383Z,7.60
2018-09-10T05:14:34.860Z,8.20
2018-09-10T05:17:05.433Z,6.73
2018-09-10T05:19:35.784Z,7.47
2018-09-10T05:22:06.860Z,6.67
2018-09-10T05:24:37.671Z,7.40
2018-09-10T05:27:07.912Z,7.10
2018-09-10T05:29:38.945Z,7.30
2018-09-10T05:32:09.843Z,7.07
2018-09-10T05:34:40.043Z,6.80
2018-09-10T05:37:10.583Z,6.90
2018-09-10T05:39:41.120Z,6.07
2018-09-10T05:42:14.491Z,6.07
2018-09-10T05:44:45.300Z,5.40
2018-09-10T05:47:16.126Z,5.80
2018-09-10T05:49:46.680Z,6.10
2018-09-10T05:52:17.203Z,5.50
2018-09-10T05:54:47.704Z,6.40
2018-09-10T05:57:18.179Z,5.90
2018-09-10T05:59:48.873Z,5.30
2018-09-10T06:02:19.284Z,5.40
2018-09-10T06:04:49.912Z,6.60
2018-09-10T06:07:20.682Z,4.83
2018-09-10T06:09:51.208Z,5.37
2018-09-10T06:12:23.298Z,5.27
2018-09-10T06:14:54.179Z,5.20
2018-09-10T06:17:24.688Z,5.57
2018-09-10T06:19:55.464Z,5.37
2018-09-10T06:22:26.136Z,5.10
2018-09-10T06:24:56.684Z,5.17
2018-09-10T06:27:26.964Z,5.43
2018-09-10T06:29:57.461Z,4.40
2018-09-10T06:32:28.162Z,5.00
2018-09-10T06:34:58.796Z,5.40
2018-09-10T06:37:29.828Z,5.07
2018-09-10T06:40:00.375Z,4.47
2018-09-10T06:42:31.205Z,5.00
2018-09-10T06:45:01.749Z,5.10
2018-09-10T06:47:32.895Z,5.13
2018-09-10T06:50:05.743Z,5.30
2018-09-10T06:52:36.436Z,5.30
2018-09-10T06:55:09.032Z,5.00
2018-09-10T06:57:39.787Z,5.93
2018-09-10T07:00:10.991Z,6.00
2018-09-10T07:02:41.779Z,5.60
2018-09-10T07:05:13.251Z,6.40
2018-09-10T07:07:43.862Z,5.47
2018-09-10T07:10:14.619Z,5.30
2018-09-10T07:12:46.021Z,5.53
2018-09-10T07:15:16.676Z,5.70
2018-09-10T07:17:47.173Z,4.77
2018-09-10T07:20:17.715Z,4.80
2018-09-10T07:22:48.324Z,4.63
2018-09-10T07:25:18.584Z,4.70
2018-09-10T07:27:52.108Z,5.27
2018-09-10T07:30:22.690Z,4.97
2018-09-10T07:32:53.258Z,4.93
2018-09-10T07:35:23.482Z,4.30
2018-09-10T07:37:54.227Z,4.80
2018-09-10T07:40:24.781Z,5.37
2018-09-10T07:42:55.316Z,5.30
2018-09-10T07:45:25.893Z,4.80
2018-09-10T07:47:56.404Z,4.83
2018-09-10T07:50:26.895Z,4.50
2018-09-10T07:52:57.420Z,5.37
2018-09-10T07:55:27.911Z,5.10
2018-09-10T07:57:58.410Z,5.00
2018-09-10T08:00:29.739Z,5.00
2018-09-10T08:03:00.573Z,5.27
2018-09-10T08:05:31.024Z,5.13
2018-09-10T08:08:01.499Z,4.40
2018-09-10T08:10:32.307Z,4.70
2018-09-10T08:13:03.120Z,6.00
2018-09-10T08:15:33.628Z,4.63
2018-09-10T08:18:04.255Z,5.00
2018-09-10T08:20:34.865Z,5.07
2018-09-10T08:23:05.263Z,6.10
2018-09-10T08:25:36.147Z,5.80
2018-09-10T08:28:06.680Z,5.43
2018-09-10T08:30:37.708Z,4.83
2018-09-10T08:33:09.410Z,5.40
2018-09-10T08:35:39.735Z,4.77
2018-09-10T08:38:10.454Z,5.03
2018-09-10T08:40:41.094Z,5.83
2018-09-10T08:43:11.656Z,4.90
2018-09-10T08:45:42.384Z,5.27
2018-09-10T08:48:13.150Z,5.57
2018-09-10T08:50:43.591Z,5.27
2018-09-10T08:53:14.190Z,4.13
2018-09-10T08:55:45.086Z,4.70
2018-09-10T08:58:15.758Z,5.50
2018-09-10T09:00:46.663Z,4.70
2018-09-10T09:03:17.219Z,6.00
2018-09-10T09:05:47.800Z,5.63
2018-09-10T09:08:18.332Z,5.07
2018-09-10T09:10:49.711Z,4.77
2018-09-10T09:13:20.204Z,5.00
2018-09-10T09:15:51.063Z,5.40
2018-09-10T09:18:21.315Z,5.57
2018-09-10T09:20:51.998Z,4.80
2018-09-10T09:23:22.453Z,5.40
2018-09-10T09:25:53.128Z,4.63
2018-09-10T09:28:23.360Z,4.97
2018-09-10T09:30:54.186Z,5.27
2018-09-10T09:33:25.015Z,5.13
2018-09-10T09:36:00.826Z,5.47
2018-09-10T09:38:36.940Z,5.17
2018-09-10T09:41:12.822Z,4.93
2018-09-10T09:43:48.616Z,5.10
2018-09-10T09:46:21.007Z,4.90
2018-09-10T09:48:51.532Z,4.60
2018-09-10T09:51:22.024Z,4.17
2018-09-10T09:53:52.659Z,5.00
2018-09-10T09:56:23.147Z,4.33
2018-09-10T09:58:53.644Z,4.13
2018-09-10T10:01:29.457Z,4.30
2018-09-10T10:04:03.847Z,3.97
2018-09-10T10:06:34.768Z,4.83
2018-09-10T10:09:08.392Z,4.27
2018-09-10T10:11:39.717Z,3.50
2018-09-10T10:14:11.266Z,3.87
2018-09-10T10:16:42.111Z,3.60
2018-09-10T10:19:12.773Z,3.83
2018-09-10T10:21:43.523Z,4.07
2018-09-10T10:24:14.296Z,3.33
2018-09-10T10:26:44.836Z,3.10
2018-09-10T10:29:15.048Z,3.13
2018-09-10T10:31:45.942Z,3.00
2018-09-10T10:34:16.324Z,3.27
2018-09-10T10:36:46.536Z,2.80
2018-09-10T10:39:16.796Z,3.37
2018-09-10T10:41:47.438Z,2.90
2018-09-10T10:44:17.927Z,3.57
2018-09-10T10:46:48.497Z,2.87
2018-09-10T10:49:19.063Z,3.20
2018-09-10T10:51:49.841Z,3.37
2018-09-10T10:54:20.326Z,3.60
2018-09-10T10:56:50.877Z,3.50
2018-09-10T10:59:21.428Z,3.10
2018-09-10T11:01:51.930Z,3.50
2018-09-10T11:04:22.409Z,3.20
2018-09-10T11:06:52.796Z,3.23
2018-09-10T11:09:23.280Z,3.33
2018-09-10T11:11:53.962Z,3.00
2018-09-10T11:14:24.164Z,3.33
2018-09-10T11:16:54.917Z,2.97
2018-09-10T11:19:25.648Z,3.83
2018-09-10T11:21:56.137Z,4.10
2018-09-10T11:24:26.696Z,3.30
2018-09-10T11:26:57.266Z,3.60
2018-09-10T11:29:27.779Z,2.73
2018-09-10T11:31:58.881Z,3.90
2018-09-10T11:34:29.389Z,3.33
2018-09-10T11:36:59.596Z,3.97
2018-09-10T11:39:29.780Z,3.30
2018-09-10T11:42:00.336Z,3.10
2018-09-10T11:44:30.572Z,3.23
2018-09-10T11:47:01.126Z,2.93
2018-09-10T11:49:31.765Z,2.90
2018-09-10T11:52:02.291Z,3.20
2018-09-10T11:54:32.855Z,3.23
2018-09-10T11:57:03.959Z,3.07
2018-09-10T11:59:34.535Z,2.97
2018-09-10T12:02:08.557Z,3.40
2018-09-10T12:04:39.157Z,3.10
2018-09-10T12:07:09.785Z,2.80
2018-09-10T12:09:40.032Z,3.27
2018-09-10T12:12:10.480Z,3.13
2018-09-10T12:14:41.985Z,3.60
2018-09-10T12:17:12.462Z,3.60
2018-09-10T12:19:43.024Z,3.97
2018-09-10T12:22:13.469Z,2.67
2018-09-10T12:24:43.981Z,3.07
2018-09-10T12:27:14.734Z,3.50
2018-09-10T12:29:46.029Z,3.30
2018-09-10T12:32:16.642Z,3.60
2018-09-10T12:34:47.394Z,3.63
2018-09-10T12:37:17.604Z,3.00
2018-09-10T12:39:48.209Z,3.07
2018-09-10T12:42:18.932Z,3.13
2018-09-10T12:44:49.475Z,3.10
2018-09-10T12:47:19.710Z,3.37
2018-09-10T12:49:49.921Z,3.43
2018-09-10T12:52:20.137Z,2.80
2018-09-10T12:54:50.695Z,2.87
2018-09-10T12:57:21.400Z,2.80
2018-09-10T12:59:52.096Z,2.90
2018-09-10T13:02:22.434Z,3.10
2018-09-10T13:04:52.660Z,3.00
2018-09-10T13:07:23.389Z,3.70
2018-09-10T13:09:53.871Z,3.30
2018-09-10T13:12:24.463Z,3.53
2018-09-10T13:14:54.824Z,3.63
2018-09-10T13:17:26.211Z,2.90
2018-09-10T13:19:56.933Z,3.43
2018-09-10T13:22:27.475Z,3.60
2018-09-10T13:24:58.149Z,3.47
2018-09-10T13:27:28.827Z,3.90
2018-09-10T13:30:00.659Z,3.47
2018-09-10T13:32:31.143Z,3.37
2018-09-10T13:35:01.978Z,3.30
2018-09-10T13:37:32.313Z,4.00
2018-09-10T13:40:02.856Z,3.43
2018-09-10T13:42:33.396Z,3.70
2018-09-10T13:45:03.963Z,3.40
2018-09-10T13:47:35.139Z,3.50
2018-09-10T13:50:06.039Z,3.07
2018-09-10T13:52:36.942Z,4.23
2018-09-10T13:55:07.342Z,4.03
2018-09-10T13:57:37.656Z,3.90
2018-09-10T14:00:08.208Z,4.20
2018-09-10T14:02:38.416Z,4.00
2018-09-10T14:05:10.178Z,3.50
2018-09-10T14:07:40.674Z,3.70
2018-09-10T14:10:11.164Z,3.80
2018-09-10T14:12:41.872Z,3.77
2018-09-10T14:15:12.426Z,3.33
2018-09-10T14:17:43.789Z,4.23
2018-09-10T14:20:14.280Z,4.40
2018-09-10T14:22:45.083Z,4.07
2018-09-10T14:25:15.589Z,4.90
2018-09-10T14:27:46.317Z,4.43
2018-09-10T14:30:17.308Z,3.97
2018-09-10T14:32:47.957Z,3.60
2018-09-10T14:35:18.664Z,3.30
2018-09-10T14:37:49.329Z,4.37
2018-09-10T14:40:19.832Z,4.30
2018-09-10T14:42:50.338Z,4.17
2018-09-10T14:45:21.364Z,4.40
2018-09-10T14:47:51.740Z,4.40
2018-09-10T14:50:22.536Z,4.90
2018-09-10T14:52:53.211Z,4.30
2018-09-10T14:55:23.848Z,4.37
2018-09-10T14:57:54.329Z,4.33
2018-09-10T15:00:25.496Z,3.80
2018-09-10T15:02:57.001Z,3.93
2018-09-10T15:05:27.664Z,4.07
2018-09-10T15:08:00.452Z,3.70
2018-09-10T15:10:30.691Z,3.80
2018-09-10T15:13:01.263Z,4.17
2018-09-10T15:15:32.367Z,3.90
2018-09-10T15:18:02.692Z,3.60
2018-09-10T15:20:33.241Z,4.37
2018-09-10T15:23:03.570Z,3.43
2018-09-10T15:25:34.299Z,3.83
2018-09-10T15:28:04.824Z,3.73
2018-09-10T15:30:35.399Z,3.50
2018-09-10T15:33:06.092Z,3.90
2018-09-10T15:35:37.072Z,3.50
2018-09-10T15:38:07.593Z,3.73
2018-09-10T15:40:38.195Z,3.93
2018-09-10T15:43:10.060Z,3.43
2018-09-10T15:45:40.368Z,3.97
2018-09-10T15:48:10.579Z,3.23
2018-09-10T15:50:41.085Z,3.20
2018-09-10T15:53:11.415Z,3.30
2018-09-10T15:55:42.478Z,4.10
2018-09-10T15:58:13.315Z,3.33
2018-09-10T16:00:43.883Z,3.57
2018-09-10T16:03:14.261Z,2.87
2018-09-10T16:05:45.272Z,3.03
2018-09-10T16:08:16.713Z,3.10
2018-09-10T16:10:47.682Z,3.30
2018-09-10T16:13:18.277Z,3.50
2018-09-10T16:15:49.092Z,3.27
2018-09-10T16:18:19.948Z,3.30
2018-09-10T16:20:50.215Z,2.73
2018-09-10T16:23:20.515Z,3.10
2018-09-10T16:25:51.224Z,3.10
2018-09-10T16:28:21.748Z,2.50
2018-09-10T16:30:52.691Z,3.93
2018-09-10T16:33:23.273Z,2.90
2018-09-10T16:35:53.793Z,2.70
2018-09-10T16:38:24.514Z,3.10
2018-09-10T16:40:55.298Z,3.17
2018-09-10T16:43:26.417Z,3.43
2018-09-10T16:45:57.004Z,2.97
2018-09-10T16:48:28.264Z,2.90
2018-09-10T16:51:02.976Z,2.97
2018-09-10T16:53:34.454Z,2.97
2018-09-10T16:56:05.396Z,3.77
2018-09-10T16:58:36.109Z,3.50
2018-09-10T17:01:07.180Z,3.27
2018-09-10T17:03:37.515Z,3.20
2018-09-10T17:06:08.200Z,3.63
2018-09-10T17:08:39.003Z,3.07
2018-09-10T17:11:09.952Z,3.90
2018-09-10T17:13:40.499Z,3.40
2018-09-10T17:16:11.043Z,3.63
2018-09-10T17:18:42.827Z,4.00
2018-09-10T17:21:13.354Z,4.20
2018-09-10T17:23:43.907Z,3.50
2018-09-10T17:26:14.527Z,3.43
2018-09-10T17:28:46.384Z,4.40
2018-09-10T17:31:17.306Z,4.60
2018-09-10T17:33:47.910Z,3.70
2018-09-10T17:36:18.664Z,4.37
2018-09-10T17:38:49.205Z,4.30
2018-09-10T17:41:19.571Z,3.80
2018-09-10T17:43:50.172Z,4.30
2018-09-10T17:46:21.245Z,3.90
2018-09-10T17:48:51.733Z,3.63
2018-09-10T17:51:21.966Z,4.30
2018-09-10T17:53:52.631Z,4.50
2018-09-10T17:56:23.250Z,3.27
2018-09-10T17:58:53.709Z,4.10
2018-09-10T18:01:24.595Z,3.47
2018-09-10T18:03:54.879Z,4.40
2018-09-10T18:06:25.340Z,4.30
2018-09-10T18:08:56.137Z,4.10
2018-09-10T18:11:28.522Z,3.83
2018-09-10T18:13:59.235Z,4.80
2018-09-10T18:16:29.917Z,4.20
2018-09-10T18:19:00.710Z,3.87
2018-09-10T18:21:31.708Z,4.10
2018-09-10T18:24:02.922Z,3.30
2018-09-10T18:26:33.460Z,3.80
2018-09-10T18:29:04.035Z,4.10
2018-09-10T18:31:34.535Z,3.70
2018-09-10T18:34:05.167Z,3.80
2018-09-10T18:36:35.813Z,3.93
2018-09-10T18:39:09.576Z,4.10
2018-09-10T18:41:40.491Z,4.60
2018-09-10T18:44:10.952Z,4.07
2018-09-10T18:46:41.457Z,3.53
2018-09-10T18:49:12.046Z,4.23
2018-09-10T18:51:42.601Z,3.80
2018-09-10T18:54:13.344Z,4.50
2018-09-10T18:56:43.868Z,4.37
2018-09-10T18:59:14.296Z,4.63
2018-09-10T19:01:44.787Z,4.30
2018-09-10T19:04:15.323Z,4.07
2018-09-10T19:06:46.049Z,4.30
2018-09-10T19:09:16.753Z,3.67
2018-09-10T19:11:47.086Z,4.30
2018-09-10T19:14:18.076Z,4.07
2018-09-10T19:16:48.756Z,4.10
2018-09-10T19:19:19.536Z,3.60
2018-09-10T19:21:50.280Z,3.80
2018-09-10T19:24:21.383Z,3.60
2018-09-10T19:26:51.768Z,3.90
2018-09-10T19:29:22.616Z,4.57
2018-09-10T19:31:56.225Z,3.77
2018-09-10T19:34:27.008Z,3.57
2018-09-10T19:36:57.636Z,3.90
2018-09-10T19:39:28.241Z,4.00
2018-09-10T19:41:58.723Z,4.20
2018-09-10T19:44:29.512Z,4.53
2018-09-10T19:47:00.030Z,4.23
2018-09-10T19:49:30.981Z,4.13
2018-09-10T19:52:01.711Z,4.03
2018-09-10T19:54:32.622Z,3.53
2018-09-10T19:57:03.228Z,3.90
2018-09-10T19:59:34.572Z,4.10
2018-09-10T20:02:05.405Z,3.73
2018-09-10T20:04:35.920Z,4.40
2018-09-10T20:07:06.464Z,4.50
2018-09-10T20:09:37.138Z,4.57
2018-09-10T20:12:07.852Z,4.00
2018-09-10T20:14:41.401Z,4.43
2018-09-10T20:17:12.077Z,4.10
2018-09-10T20:19:42.280Z,4.50
2018-09-10T20:22:16.985Z,3.87
2018-09-10T20:24:47.493Z,3.77
2018-09-10T20:27:18.019Z,3.57
2018-09-10T20:29:48.239Z,3.50
2018-09-10T20:32:18.507Z,4.17
2018-09-10T20:34:49.288Z,3.90
2018-09-10T20:37:20.653Z,4.10
2018-09-10T20:39:50.820Z,3.57
2018-09-10T20:42:21.505Z,3.50
2018-09-10T20:44:52.157Z,3.30
2018-09-10T20:47:22.858Z,4.10
2018-09-10T20:49:53.704Z,3.70
2018-09-10T20:52:23.925Z,3.83
2018-09-10T20:54:54.168Z,3.37
2018-09-10T20:57:24.688Z,3.70
2018-09-10T20:59:54.916Z,3.13
2018-09-10T21:02:25.642Z,3.60
2018-09-10T21:04:57.885Z,3.90
2018-09-10T21:07:28.653Z,4.17
2018-09-10T21:09:59.370Z,3.90
2018-09-10T21:12:30.001Z,3.87
2018-09-10T21:15:00.573Z,4.03
2018-09-10T21:17:31.059Z,3.20
2018-09-10T21:20:01.637Z,3.30
2018-09-10T21:22:35.290Z,3.30
2018-09-10T21:25:06.810Z,3.70
2018-09-10T21:27:37.902Z,3.13
2018-09-10T21:30:08.521Z,3.63
2018-09-10T21:32:38.996Z,3.17
2018-09-10T21:35:42.076Z,3.33
2018-09-10T21:38:12.483Z,4.00
2018-09-10T21:40:43.367Z,3.00
2018-09-10T21:43:13.552Z,3.90
2018-09-10T21:45:44.045Z,3.93
2018-09-10T21:48:14.536Z,3.50
2018-09-10T21:50:45.253Z,4.10
2018-09-10T21:53:16.257Z,3.80
2018-09-10T21:55:47.062Z,3.33
2018-09-10T21:58:18.405Z,3.67
2018-09-10T22:00:53.960Z,3.57
2018-09-10T22:03:25.085Z,3.87
2018-09-10T22:05:55.953Z,3.93
2018-09-10T22:08:26.239Z,3.23
2018-09-10T22:10:56.471Z,3.60
2018-09-10T22:13:26.952Z,4.30
2018-09-10T22:15:57.463Z,3.50
2018-09-10T22:18:27.989Z,3.57
2018-09-10T22:20:58.544Z,3.40
2018-09-10T22:23:28.825Z,3.57
2018-09-10T22:25:59.636Z,3.00
2018-09-10T22:28:30.195Z,4.27
2018-09-10T22:31:00.675Z,3.83
2018-09-10T22:33:31.209Z,4.00
2018-09-10T22:36:02.026Z,4.00
2018-09-10T22:38:32.268Z,4.00
2018-09-10T22:41:02.808Z,3.70
2018-09-10T22:43:35.152Z,4.23
2018-09-10T22:46:06.335Z,4.13
2018-09-10T22:48:36.931Z,3.03
2018-09-10T22:51:07.423Z,4.10
2018-09-10T22:53:38.814Z,4.00
2018-09-10T22:56:09.380Z,4.53
2018-09-10T22:58:39.931Z,4.83
2018-09-10T23:01:13.035Z,4.33
2018-09-10T23:03:43.688Z,3.67
2018-09-10T23:06:14.199Z,4.50
2018-09-10T23:08:44.816Z,4.33
2018-09-10T23:11:16.249Z,4.00
2018-09-10T23:13:47.082Z,3.67
2018-09-10T23:16:17.591Z,4.30
2018-09-10T23:18:48.228Z,4.50
2018-09-10T23:21:18.979Z,4.03
2018-09-10T23:23:49.476Z,4.07
2018-09-10T23:26:20.210Z,3.80
2018-09-10T23:28:50.703Z,4.20
2018-09-10T23:31:21.206Z,3.60
2018-09-10T23:33:51.427Z,3.43
2018-09-10T23:36:22.121Z,3.53
2018-09-10T23:38:52.668Z,3.80
2018-09-10T23:41:23.515Z,4.00
2018-09-10T23:43:54.125Z,3.83
2018-09-10T23:46:24.876Z,4.20
2018-09-10T23:48:55.381Z,3.93
2018-09-10T23:51:25.961Z,4.00
2018-09-10T23:53:57.064Z,4.47
2018-09-10T23:56:27.627Z,3.83
2018-09-10T23:58:58.116Z,4.87
